HALF-HOURLY OBSERVATIONS INDEX

003

Kimberley - west

BROOME AIRPORT

Site: 003003
Alt: 7.4m
2km N of BROOME


  Time     Wind        Temp  DP   Baro     Rain since   Rain past  Vis(m), Cloud(base in m), Weather
  local        km/h                         9am  last   hr   10m    
Mon 08:00   SW 28/ 35  30.6 27.0  1008.8    0.6   0.0   0.0   0.0   10000 
Mon 08:30   SW 28/ 37  31.3 26.8  1009.1    0.6   0.0   0.0   0.0   10000 
Mon 09:00   SW 24/ 32  31.8 26.6  1009.6    0.6   0.0   0.0   0.0   10000 
Mon 09:30  SSW 26/ 35  32.4 26.5  1009.8    0.0   0.0   0.0   0.0   10000|SC 600 
Mon 10:00   SW 26/ 35  33.1 26.6  1009.4    0.0   0.0   0.0   0.0   10000|SC 600 
Mon 10:30   SW 22/ 35  33.4 26.2  1009.3    0.0   0.0   0.0   0.0   10000|SC 600 
Mon 11:00   SW 24/ 33  33.5 26.8  1009.1    0.0   0.0   0.0   0.0   10000|SC 630 
Mon 11:30  WSW 22/ 33  33.1 26.6  1008.7    0.0   0.0   0.0   0.0   10000|BR 630 
Mon 12:00  WSW 24/ 30  33.5 26.5  1008.4    0.0   0.0   0.0   0.0   10000|BR 630 
Mon 12:30    W 20/ 33  33.6 27.1  1007.8    0.0   0.0   0.0   0.0   10000|SC 630 
Mon 13:00    W 20/ 32  33.4 27.2  1007.2    0.0   0.0   0.0   0.0   10000 
Mon 13:30    W 22/ 30  33.7 26.7  1006.7    0.0   0.0   0.0   0.0   10000 

BROOME NTC AWS

Site: 003102
Alt: 0.0m
5km SSW of BROOME


  Time     Wind        Temp  DP   Baro     Rain since   Rain past  Vis(m), Cloud(base in m), Weather
  local        km/h                         9am  last   hr   10m    
Mon 08:00   SW 35/ 41  30.3----  1008.0   ----  ----  ----  ----   ----- 
Mon 08:30   SW 37/ 43  30.7----  1008.2   ----  ----  ----  ----   ----- 
Mon 09:00  SSW 30/ 35  31.0----  1008.8   ----  ----  ----  ----   ----- 
Mon 09:30  SSW 33/ 37  31.1----  1008.9   ----  ----  ----  ----   ----- 
Mon 10:00   SW 30/ 33  31.2----  1008.6   ----  ----  ----  ----   ----- 
Mon 10:30   SW 26/ 32  31.7----  1008.6   ----  ----  ----  ----   ----- 
Mon 11:00   SW 30/ 33  31.7----  1008.2   ----  ----  ----  ----   ----- 
Mon 11:30   SW 28/ 33  31.4----  1007.8   ----  ----  ----  ----   ----- 
Mon 12:00   SW 26/ 30  31.6----  1007.4   ----  ----  ----  ----   ----- 
Mon 12:30   SW 22/ 28  32.0----  1007.0   ----  ----  ----  ----   ----- 
Mon 13:00  WSW 22/ 28  30.6----  1006.4   ----  ----  ----  ----   ----- 
Mon 13:30    W 22/ 30  30.8----  1005.9   ----   0.0   0.0  ----   ----- 

CAPE LEVEQUE AIRPORT

Site: 003LBD
Alt: m
176km NNE of BROOME


  Time     Wind        Temp  DP   Baro     Rain since   Rain past  Vis(m), Cloud(base in m), Weather
  local        km/h                         9am  last   hr   10m    
Mon 08:00   SW  9/ 15  30.7 25.3  1009.8    0.0   0.0   0.0   0.0   10000 
Mon 08:30   SW 13/ 22  31.6 25.2  1009.9    0.0   0.0   0.0   0.0   10000 
Mon 09:00  WSW 17/ 24  32.3 24.6  1009.8    0.0   0.0   0.0   0.0   10000 
Mon 09:30   SW 17/ 26  33.0 24.7  1009.6    0.0   0.0   0.0   0.0   10000 
Mon 10:00   SW 17/ 26  33.4 25.4  1009.2    0.0   0.0   0.0   0.0   10000 
Mon 10:30  SSW  9/ 19  34.6 24.8  1009.0    0.0   0.0   0.0   0.0   10000 
Mon 11:00  WSW 11/ 19  35.2 24.8  1008.6    0.0   0.0   0.0   0.0   10000 
Mon 11:30  WNW 20/ 28  34.7 27.1  1008.1    0.0   0.0   0.0   0.0   10000 
Mon 12:00    W 20/ 30  33.7 26.7  1007.9    0.0   0.0   0.0   0.0   10000 
Mon 12:30    W 17/ 26  34.0 26.7  1007.3    0.0   0.0   0.0   0.0   10000 
Mon 13:00    W 19/ 26  34.5 26.4  1006.8    0.0   0.0   0.0   0.0   10000 
Mon 13:30    W 19/ 28  34.4 26.6  1006.4    0.0   0.0   0.0   0.0   10000 

CURTIN AERO

Site: 003080
Alt: 77.5m
36km SE of DERBY


  Time     Wind        Temp  DP   Baro     Rain since   Rain past  Vis(m), Cloud(base in m), Weather
  local        km/h                         9am  last   hr   10m    
Mon 08:00    W  7/ 11  30.8 24.2  1009.0    0.0   0.0   0.0   0.0   10000 
Mon 08:30  WSW 11/ 17  32.1 23.9  1009.2    0.0   0.0   0.0   0.0   10000 
Mon 09:00    W 11/ 17  33.0 23.0  1009.2    0.0   0.0   0.0   0.0   10000 
Mon 09:30    W 11/ 17  33.7 22.8  1008.9    0.0   0.0   0.0   0.0   10000 
Mon 10:00  WSW 13/ 19  34.3 22.0  1008.6    0.0   0.0   0.0   0.0   10000 
Mon 10:30  SSW 11/ 20  35.3 23.0  1008.4    0.0   0.0   0.0   0.0   10000 
Mon 11:00   SW 13/ 17  35.8 21.6  1008.0    0.0   0.0   0.0   0.0   10000 
Mon 11:30  SSW 11/ 15  36.4 21.4  1007.5    0.0   0.0   0.0   0.0   10000 
Mon 12:00    S  9/ 17  37.2 21.3  1006.8    0.0   0.0   0.0   0.0   10000 
Mon 12:30  SSW  9/ 13  37.9 22.4  1006.2    0.0   0.0   0.0   0.0   10000 
Mon 13:00    S  6/ 19  38.4 22.0  1005.7    0.0   0.0   0.0   0.0   10000 
Mon 13:30    S 13/ 20  38.5 21.6  1004.9    0.0   0.0   0.0   0.0   10000 

DERBY AERO

Site: 003032
Alt: 6.2m
8km SSE of DERBY


  Time     Wind        Temp  DP   Baro     Rain since   Rain past  Vis(m), Cloud(base in m), Weather
  local        km/h                         9am  last   hr   10m    
Mon 08:00  SSW  6/  9  31.1 25.4  1009.4    3.2   0.0   0.0   0.0   10000 
Mon 08:30  WSW 13/ 20  32.1 24.9  1009.5    3.2   0.0   0.0   0.0   10000 
Mon 09:00  WSW 13/ 20  33.0 23.9  1009.4    3.2   0.0   0.0   0.0   10000 
Mon 09:30   SW 15/ 20  34.5 25.0  1009.2    0.0   0.0   0.0   0.0   10000 
Mon 10:00   SW 11/ 17  34.2 23.6  1008.9    0.0   0.0   0.0   0.0   10000 
Mon 10:30    W 13/ 22  35.0 22.7  1008.6    0.0   0.0   0.0   0.0   10000 
Mon 11:00  WSW  9/ 17  36.0 22.9  1008.3    0.0   0.0   0.0   0.0   10000 
Mon 11:30  WSW  9/ 19  37.2 22.1  1007.6    0.0   0.0   0.0   0.0   10000 
Mon 12:00    W 11/ 20  38.0 21.6  1006.9    0.0   0.0   0.0   0.0   10000 
Mon 12:30   SW  7/ 20  39.4 21.5  1006.2    0.0   0.0   0.0   0.0   10000 
Mon 13:00    W 11/ 24  38.9 22.8  1005.6    0.0   0.0   0.0   0.0   10000 
Mon 13:30  SSW 11/ 20  39.2 19.5  1004.9    0.0   0.0   0.0   0.0   10000 

FITZROY CROSSING AERO

Site: 003093
Alt: 114.5m
3km E of FITZROY CROSSING


  Time     Wind        Temp  DP   Baro     Rain since   Rain past  Vis(m), Cloud(base in m), Weather
  local        km/h                         9am  last   hr   10m    
Mon 08:00  NNW  9/ 15  31.1 24.7  1009.7    0.0   0.0   0.0   0.0   ----- 
Mon 08:30   NW  7/ 11  32.2 24.3  1009.9    0.0   0.0   0.0   0.0   ----- 
Mon 09:00  WSW  7/ 13  33.4 23.4  1009.8    0.0   0.0   0.0   0.0   ----- 
Mon 09:30    W  9/ 15  34.5 23.2  1009.4    0.0   0.0   0.0   0.0   ----- 
Mon 10:00   NW  9/ 17  35.6 21.5  1009.3    0.0   0.0   0.0   0.0   ----- 
Mon 10:30   SW 11/ 19  36.3 22.1  1009.3    0.0   0.0   0.0   0.0   ----- 
Mon 11:00  SSW 11/ 17  36.3 21.3  1009.0    0.0   0.0   0.0   0.0   ----- 
Mon 11:30   SW  7/ 13  37.4 20.7  1008.6    0.0   0.0   0.0   0.0   ----- 
Mon 12:00   SW  9/ 17  37.8 19.7  1007.8    0.0   0.0   0.0   0.0   ----- 
Mon 12:30   SW 13/ 20  38.0 18.4  1006.9    0.0   0.0   0.0   0.0   ----- 
Mon 13:00    W 15/ 20  38.8 18.6  1006.5    0.0   0.0   0.0   0.0   ----- 
Mon 13:30  WSW 13/ 20  39.5 19.2  1006.6    0.0   0.0   0.0   0.0   ----- 

YAMPI SOUND (DEFENCE)

Site: 003108
Alt: 41.3m
km of


  Time     Wind        Temp  DP   Baro     Rain since   Rain past  Vis(m), Cloud(base in m), Weather
  local        km/h                         9am  last   hr   10m    
Mon 08:00   SW  6/  9  31.4 26.7  1013.2    0.0   0.0   0.0   0.0   ----- 
Mon 08:30   SW  7/ 17  31.9 26.4  1013.5    0.0   0.0   0.0   0.0   ----- 
Mon 09:00  WSW  7/ 11  32.7 25.5  1013.3    0.0   0.0   0.0   0.0   ----- 
Mon 09:30  SSW  7/ 11  34.0 25.4  1012.9    0.0   0.0   0.0   0.0   ----- 
Mon 10:00   SW  9/ 19  34.8 25.0  1012.6    0.0   0.0   0.0   0.0   ----- 
Mon 10:30    S  9/ 17  35.1 23.8  1012.4    0.0   0.0   0.0   0.0   ----- 
Mon 11:00   SW  9/ 17  35.5 24.4  1011.9    0.0   0.0   0.0   0.0   ----- 
Mon 11:30   SW  9/ 17  36.7 24.2  1011.5    0.0   0.0   0.0   0.0   ----- 
Mon 12:00  WSW  9/ 15  36.9 23.7  1010.8    0.0   0.0   0.0   0.0   ----- 
Mon 12:30  WSW  9/ 20  37.5 23.5  1010.2    0.0   0.0   0.0   0.0   ----- 
Mon 13:00   SW  7/ 13  37.8 21.4  1009.6    0.0   0.0   0.0   0.0   ----- 
Mon 13:30  SSW 11/ 19  38.3 21.5  1009.0    0.0   0.0   0.0   0.0   -----